Time;durP1;ratioP1;P1;durP2;ratioP2;P2;SDS_P1;SDS_P2;PMS_P1;PMS_P2;Temp;Humidity;BMP_temperature;BMP_pressure;BME280_temperature;BME280_humidity;BME280_pressure;Samples;Min_cycle;Max_cycle;Signal;HPM_P1;HPM_P2
2022/11/16 00:01:31;;;;;;;3.10;1.15;;;;;;;7.29;88.61;97921.88;4967981;28;20086;-46
2022/11/16 00:03:59;;;;;;;5.65;1.00;;;;;;;7.30;88.88;97922.66;4982989;28;20038;-45
2022/11/16 00:06:27;;;;;;;0.90;0.73;;;;;;;7.30;89.04;97917.16;4985317;28;20045;-48
2022/11/16 00:11:43;;;;;;;3.90;0.93;;;;;;;7.28;89.40;97922.28;4971789;28;20161;-47
2022/11/16 00:14:10;;;;;;;3.78;1.33;;;;;;;7.27;89.56;97928.94;4968858;28;20058;-47
2022/11/16 00:16:37;;;;;;;1.27;0.40;;;;;;;7.24;89.71;97924.22;4970981;28;20575;-46
2022/11/16 00:19:05;;;;;;;4.97;0.60;;;;;;;7.19;89.90;97911.63;4971335;28;20133;-46
2022/11/16 00:21:33;;;;;;;3.58;0.60;;;;;;;7.16;90.00;97923.44;4970849;28;20050;-43
2022/11/16 00:24:00;;;;;;;4.82;0.63;;;;;;;7.17;90.13;97921.47;4970096;28;20061;-45
2022/11/16 00:26:27;;;;;;;2.47;0.50;;;;;;;7.15;90.08;97929.31;4970647;28;20045;-45
2022/11/16 00:28:54;;;;;;;5.80;0.80;;;;;;;7.13;90.22;97923.41;4971182;28;20395;-50
2022/11/16 00:31:22;;;;;;;2.88;0.70;;;;;;;7.11;90.37;97925.78;4970680;28;20101;-44
2022/11/16 00:33:50;;;;;;;6.47;1.10;;;;;;;7.10;90.90;97918.69;4970819;28;20042;-46
2022/11/16 00:36:17;;;;;;;5.38;0.77;;;;;;;7.11;90.73;97920.28;4970335;28;20046;-44
2022/11/16 00:38:43;;;;;;;1.55;0.70;;;;;;;7.11;90.82;97904.56;4970625;28;20045;-45
2022/11/16 00:41:10;;;;;;;1.25;0.70;;;;;;;7.10;91.03;97916.72;4970864;28;20046;-44
2022/11/16 00:43:37;;;;;;;1.65;0.60;;;;;;;7.11;91.12;97920.28;4970529;28;20063;-46
2022/11/16 00:46:04;;;;;;;0.90;0.57;;;;;;;7.11;91.02;97917.53;4969660;28;20133;-44
2022/11/16 00:48:31;;;;;;;1.90;0.47;;;;;;;7.11;91.34;97920.28;4965817;28;20047;-44
2022/11/16 00:50:58;;;;;;;1.15;0.60;;;;;;;7.11;91.32;97907.31;4983362;28;20053;-44
2022/11/16 00:53:25;;;;;;;2.60;0.60;;;;;;;7.11;91.48;97912.00;4967791;28;20465;-45
2022/11/16 00:55:51;;;;;;;2.22;0.52;;;;;;;7.12;91.46;97905.34;4970206;28;20037;-45
2022/11/16 00:58:20;;;;;;;1.25;0.40;;;;;;;7.10;91.58;97907.69;4970411;28;20062;-46
2022/11/16 01:00:46;;;;;;;2.10;0.50;;;;;;;7.08;91.65;97899.03;4969890;28;20059;-46
2022/11/16 01:03:14;;;;;;;0.63;0.40;;;;;;;7.04;91.75;97892.75;4970460;28;20057;-45
2022/11/16 01:05:41;;;;;;;2.55;0.73;;;;;;;7.03;92.02;97899.44;4970001;28;20047;-45
2022/11/16 01:08:09;;;;;;;1.55;1.10;;;;;;;7.02;92.23;97901.38;4968526;28;20110;-51
2022/11/16 01:10:38;;;;;;;1.08;0.32;;;;;;;7.04;92.18;97903.75;4966032;28;20049;-44
2022/11/16 01:13:05;;;;;;;1.92;0.77;;;;;;;7.04;92.21;97898.25;4970780;28;20043;-47
2022/11/16 01:15:32;;;;;;;0.98;0.40;;;;;;;7.04;92.22;97899.03;4970130;28;20055;-47
2022/11/16 01:17:59;;;;;;;1.00;0.52;;;;;;;7.04;92.45;97907.28;4957089;28;20043;-45
2022/11/16 01:20:28;;;;;;;1.75;0.57;;;;;;;7.03;92.46;97897.47;4962544;28;20049;-48
2022/11/16 01:22:55;;;;;;;0.80;0.63;;;;;;;7.03;92.34;97891.19;4968936;28;20154;-46
2022/11/16 01:25:22;;;;;;;1.17;0.40;;;;;;;7.01;92.38;97893.53;4970060;28;20076;-46
2022/11/16 01:27:48;;;;;;;0.82;0.45;;;;;;;6.98;92.43;97889.59;4969960;28;20038;-45
2022/11/16 01:30:15;;;;;;;0.90;0.28;;;;;;;6.94;92.51;97882.50;4969037;28;20069;-44
2022/11/16 01:32:42;;;;;;;0.40;0.20;;;;;;;6.89;92.68;97885.63;4970136;28;20113;-43
2022/11/16 01:35:17;;;;;;;0.47;0.17;;;;;;;6.84;92.54;97880.53;4970013;28;20039;-43
2022/11/16 01:37:44;;;;;;;2.38;2.15;;;;;;;6.79;92.66;97880.91;4967918;28;20142;-43
2022/11/16 01:40:12;;;;;;;0.55;0.20;;;;;;;6.75;92.75;97872.69;4969162;28;20039;-45
2022/11/16 01:42:40;;;;;;;0.17;0.10;;;;;;;6.73;92.77;97886.00;4968666;28;20436;-44
2022/11/16 01:45:18;;;;;;;1.55;0.22;;;;;;;6.70;92.79;97884.81;4969236;28;20146;-50
2022/11/16 01:47:45;;;;;;;0.65;0.20;;;;;;;6.68;92.76;97883.63;4973994;28;20050;-43
2022/11/16 01:50:15;;;;;;;2.85;0.30;;;;;;;6.65;92.53;97874.19;4973554;28;20058;-45
2022/11/16 01:52:50;;;;;;;0.60;0.30;;;;;;;6.64;92.81;97872.66;4974190;28;20057;-43
2022/11/16 01:55:17;;;;;;;1.35;0.30;;;;;;;6.63;92.77;97876.56;4971895;28;21005;-43
2022/11/16 01:57:46;;;;;;;0.45;0.10;;;;;;;6.62;92.77;97876.94;4969760;28;20047;-51
2022/11/16 02:00:14;;;;;;;0.13;0.10;;;;;;;6.61;92.79;97883.63;4967491;28;20061;-47
2022/11/16 02:02:41;;;;;;;0.60;0.10;;;;;;;6.58;92.75;97874.19;4970071;28;20054;-51
2022/11/16 02:05:11;;;;;;;0.30;0.10;;;;;;;6.55;92.81;97880.47;4972112;28;20050;-47
2022/11/16 02:11:17;;;;;;;4.10;1.10;;;;;;;6.51;92.74;97874.16;4974316;28;20066;-51
2022/11/16 02:14:10;;;;;;;1.58;1.17;;;;;;;6.49;92.94;97873.75;4973865;28;20054;-43
2022/11/16 02:16:55;;;;;;;;;;;;;;;6.49;92.98;97879.25;4974251;28;20057;-44
2022/11/16 02:19:48;;;;;;;1.17;0.65;;;;;;;6.47;92.76;97876.13;4972308;28;19925;-46
2022/11/16 02:22:40;;;;;;;0.50;0.50;;;;;;;6.47;92.76;97870.63;4973018;28;20077;-46
2022/11/16 02:25:20;;;;;;;1.70;0.60;;;;;;;6.44;92.79;97865.91;4977439;28;20057;-44
2022/11/16 02:28:04;;;;;;;0.95;0.45;;;;;;;6.42;92.79;97871.00;4974109;28;20047;-45
2022/11/16 02:30:32;;;;;;;1.10;0.45;;;;;;;6.42;92.83;97868.25;4973242;28;20727;-45
2022/11/16 02:33:09;;;;;;;0.88;0.40;;;;;;;6.42;92.78;97867.47;4973434;28;20055;-43
2022/11/16 02:35:44;;;;;;;1.58;0.60;;;;;;;6.41;92.90;97866.66;4969700;28;20059;-50
2022/11/16 02:38:17;;;;;;;1.02;0.47;;;;;;;6.42;92.99;97868.25;4971060;28;20043;-44
2022/11/16 02:40:49;;;;;;;0.45;0.45;;;;;;;6.41;93.38;97861.16;4971046;28;20489;-46
2022/11/16 02:43:22;;;;;;;1.65;0.50;;;;;;;6.41;93.17;97861.16;4971628;28;20645;-46
2022/11/16 02:45:53;;;;;;;2.55;0.60;;;;;;;6.40;93.11;97864.31;4969661;28;20133;-44
2022/11/16 02:48:26;;;;;;;3.88;0.60;;;;;;;6.38;93.10;97861.94;4970560;28;20169;-45
2022/11/16 02:50:52;;;;;;;;;;;;;;;6.37;93.20;97860.38;4971488;28;20061;-43
2022/11/16 02:53:21;;;;;;;1.67;0.68;;;;;;;6.35;92.99;97862.75;4970719;28;19950;-45
2022/11/16 02:55:47;;;;;;;2.58;0.80;;;;;;;6.34;93.28;97863.91;4970474;28;20049;-48
2022/11/16 02:58:25;;;;;;;3.13;0.68;;;;;;;6.31;93.16;97859.19;4971511;28;20150;-45
2022/11/16 03:01:07;;;;;;;3.38;0.88;;;;;;;6.26;93.12;97856.00;5001179;23;20057;-46
2022/11/16 03:03:38;;;;;;;1.60;0.85;;;;;;;6.23;93.15;97863.06;4933058;29;20490;-45
2022/11/16 03:06:30;;;;;;;1.98;0.40;;;;;;;6.20;93.50;97858.34;4931809;29;20103;-44
2022/11/16 03:09:06;;;;;;;;;;;;;;;6.18;93.36;97852.47;4929698;29;20508;-44
2022/11/16 03:14:24;;;;;;;1.65;0.73;;;;;;;6.09;93.22;97843.78;4934201;29;20327;-44
2022/11/16 03:16:59;;;;;;;0.43;0.20;;;;;;;6.06;93.57;97848.06;4933872;29;20458;-45
2022/11/16 03:19:43;;;;;;;0.80;0.22;;;;;;;6.06;93.52;97852.81;4933034;29;20046;-44
2022/11/16 03:22:34;;;;;;;0.17;0.10;;;;;;;6.04;93.43;97847.69;4933688;29;20046;-44
2022/11/16 03:25:03;;;;;;;0.90;0.40;;;;;;;6.04;93.29;97849.63;4922203;29;20051;-42
2022/11/16 03:27:44;;;;;;;0.35;0.35;;;;;;;6.03;93.39;97848.09;4933956;29;20397;-44
2022/11/16 03:30:21;;;;;;;0.98;0.28;;;;;;;5.99;93.39;97850.00;4933504;29;20062;-43
2022/11/16 03:33:05;;;;;;;0.35;0.30;;;;;;;5.96;93.37;97850.78;4933611;29;20136;-47
2022/11/16 03:35:40;;;;;;;0.68;0.52;;;;;;;5.94;93.39;97842.94;4935344;29;20048;-45
2022/11/16 03:38:09;;;;;;;0.80;0.20;;;;;;;5.92;93.35;97842.53;4943374;28;20150;-43
2022/11/16 03:40:37;;;;;;;1.27;0.28;;;;;;;5.90;93.37;97839.41;4938656;29;20051;-47
2022/11/16 03:43:06;;;;;;;2.42;0.28;;;;;;;5.86;93.62;97841.31;4933256;29;20051;-45
2022/11/16 03:45:35;;;;;;;0.17;0.10;;;;;;;5.81;93.75;97844.41;4937992;29;20055;-44
2022/11/16 03:48:02;;;;;;;0.20;0.20;;;;;;;5.77;93.85;97838.09;4933288;29;20477;-44
2022/11/16 03:50:29;;;;;;;2.28;0.40;;;;;;;5.74;93.70;97843.59;4935943;29;20065;-44
2022/11/16 03:52:55;;;;;;;1.88;0.30;;;;;;;5.67;94.00;97843.53;4938950;28;20054;-45
2022/11/16 03:55:23;;;;;;;2.55;0.35;;;;;;;5.65;94.32;97851.34;4939988;29;20056;-43
2022/11/16 03:57:50;;;;;;;0.30;0.30;;;;;;;5.64;94.13;97839.59;4934391;28;20102;-47
2022/11/16 04:00:17;;;;;;;1.58;0.35;;;;;;;5.61;94.22;97845.88;4948912;28;20046;-45
2022/11/16 04:02:43;;;;;;;0.15;0.15;;;;;;;5.60;94.27;97849.78;4939286;29;20479;-45
2022/11/16 04:24:44;;;;;;;0.45;0.32;;;;;;;5.40;94.43;97857.47;4937059;29;20240;-44
2022/11/16 04:30:01;;;;;;;1.00;0.38;;;;;;;5.39;94.39;97858.66;4942312;29;20047;-44
2022/11/16 04:37:59;;;;;;;3.08;0.40;;;;;;;5.24;94.33;97854.22;4936020;28;20062;-44
2022/11/16 04:40:28;;;;;;;2.15;0.50;;;;;;;5.22;94.28;97862.03;4936726;29;20126;-45
2022/11/16 04:42:57;;;;;;;0.77;0.40;;;;;;;5.24;94.48;97856.19;4936831;29;20099;-46
2022/11/16 04:48:12;;;;;;;0.52;0.38;;;;;;;5.18;94.35;97849.47;4941112;29;20079;-45
2022/11/16 04:50:39;;;;;;;0.43;0.35;;;;;;;5.19;94.69;97862.78;4935300;29;20064;-47
2022/11/16 04:53:07;;;;;;;0.22;0.17;;;;;;;5.16;94.61;97860.84;4935580;28;20122;-43
2022/11/16 04:55:34;;;;;;;1.52;0.40;;;;;;;5.14;94.58;97870.56;4941032;29;20118;-44
2022/11/16 04:58:01;;;;;;;0.70;0.40;;;;;;;5.13;94.60;97869.81;4942024;28;20098;-44
2022/11/16 05:00:28;;;;;;;0.43;0.25;;;;;;;5.14;94.98;97867.84;4932363;28;20048;-50
2022/11/16 05:02:55;;;;;;;0.40;0.20;;;;;;;5.14;94.76;97874.13;4938480;29;20095;-43
2022/11/16 05:05:27;;;;;;;0.30;0.30;;;;;;;5.13;94.88;97871.75;4942141;28;20051;-44
2022/11/16 05:07:54;;;;;;;0.40;0.20;;;;;;;5.13;94.69;97872.56;4942961;29;20334;-46
2022/11/16 05:10:21;;;;;;;3.17;0.50;;;;;;;5.11;94.84;97872.13;4944617;28;20094;-43
2022/11/16 05:12:49;;;;;;;2.22;0.43;;;;;;;5.11;95.05;97877.59;4937388;28;21631;-48
2022/11/16 05:15:18;;;;;;;1.52;0.30;;;;;;;5.09;94.70;97876.41;4939048;28;20111;-45
2022/11/16 05:17:46;;;;;;;1.95;0.30;;;;;;;5.06;94.88;97885.38;4930882;29;20040;-52
2022/11/16 05:26:01;;;;;;;0.25;0.20;;;;;;;5.05;94.92;97889.31;4930271;29;20291;-46
2022/11/16 05:28:28;;;;;;;0.77;0.25;;;;;;;5.04;94.73;97894.00;4946090;29;20040;-45
2022/11/16 05:30:54;;;;;;;1.75;0.40;;;;;;;5.03;94.76;97884.19;4931561;29;20409;-44
2022/11/16 05:33:23;;;;;;;0.30;0.30;;;;;;;5.03;94.74;97891.66;4946814;28;20048;-51
2022/11/16 05:35:50;;;;;;;1.98;0.40;;;;;;;5.01;94.74;97894.75;4946547;29;20071;-43
2022/11/16 05:38:18;;;;;;;4.72;0.70;;;;;;;5.00;94.99;97886.94;4930631;29;20138;-50
2022/11/16 05:40:45;;;;;;;1.17;0.40;;;;;;;4.99;94.85;97886.13;4931607;29;20075;-45
2022/11/16 05:43:12;;;;;;;0.70;0.40;;;;;;;4.96;94.87;97886.88;4930066;29;20055;-45
2022/11/16 05:45:39;;;;;;;0.40;0.38;;;;;;;4.92;94.77;97891.56;4931705;29;20051;-44
2022/11/16 05:48:06;;;;;;;4.05;1.10;;;;;;;4.88;94.81;97890.72;4934164;29;20077;-44
2022/11/16 05:50:33;;;;;;;1.73;0.40;;;;;;;4.86;95.00;97880.16;4934891;29;20055;-44
2022/11/16 05:53:08;;;;;;;0.63;0.45;;;;;;;4.85;94.78;97884.03;4947763;28;20035;-44
2022/11/16 05:55:35;;;;;;;3.13;0.65;;;;;;;4.83;94.84;97888.31;4933558;29;20052;-45
2022/11/16 05:58:01;;;;;;;0.68;0.57;;;;;;;4.79;94.96;97890.25;4936781;28;20070;-48
2022/11/16 06:00:29;;;;;;;0.55;0.47;;;;;;;4.79;94.96;97893.75;4934493;29;20568;-44
2022/11/16 06:02:56;;;;;;;1.27;0.63;;;;;;;4.74;95.10;97891.34;4930965;29;20048;-48
2022/11/16 06:05:23;;;;;;;2.28;1.83;;;;;;;4.74;94.79;97896.03;4939570;29;20052;-43
2022/11/16 06:07:49;;;;;;;0.93;0.43;;;;;;;4.75;95.14;97892.16;4933430;29;20052;-45
2022/11/16 06:10:16;;;;;;;0.70;0.47;;;;;;;4.74;95.28;97885.88;4942446;28;20043;-45
2022/11/16 06:12:43;;;;;;;0.98;0.50;;;;;;;4.78;95.38;97883.19;4935369;28;20051;-49
2022/11/16 06:15:10;;;;;;;3.83;0.68;;;;;;;4.75;95.21;97886.66;4934787;29;20048;-44
2022/11/16 06:17:36;;;;;;;0.40;0.30;;;;;;;4.74;94.83;97880.41;4935951;29;20454;-44
2022/11/16 06:20:03;;;;;;;4.28;0.63;;;;;;;4.72;94.67;97890.16;4940870;29;20048;-43
2022/11/16 06:22:30;;;;;;;3.42;0.88;;;;;;;4.69;94.72;97890.91;4942686;28;20055;-44
2022/11/16 06:24:57;;;;;;;1.95;0.60;;;;;;;4.68;94.94;97892.09;4937431;29;20039;-46
2022/11/16 06:27:24;;;;;;;0.73;0.50;;;;;;;4.63;94.87;97895.94;4945791;28;20564;-45
2022/11/16 06:29:50;;;;;;;1.20;0.90;;;;;;;4.58;94.86;97896.28;4936727;28;20103;-45
2022/11/16 06:32:17;;;;;;;2.15;1.27;;;;;;;4.59;95.21;97905.28;4936503;29;20048;-46
2022/11/16 06:34:44;;;;;;;4.10;2.08;;;;;;;4.58;95.48;97901.75;4959845;28;20118;-47
2022/11/16 06:37:11;;;;;;;3.35;2.22;;;;;;;4.54;95.05;97903.69;4959600;28;20051;-45
2022/11/16 06:39:37;;;;;;;2.60;1.20;;;;;;;4.50;95.29;97904.81;4949137;29;20048;-44
2022/11/16 06:42:04;;;;;;;1.17;1.08;;;;;;;4.49;95.43;97905.97;4949626;28;20055;-48
2022/11/16 06:44:31;;;;;;;2.20;1.00;;;;;;;4.51;95.21;97898.16;4938211;28;20056;-44
2022/11/16 06:46:58;;;;;;;1.80;1.13;;;;;;;4.50;95.48;97902.06;4936813;29;20386;-44
2022/11/16 06:49:24;;;;;;;3.03;2.33;;;;;;;4.52;95.36;97905.22;4936359;29;20156;-44
2022/11/16 06:51:51;;;;;;;1.75;1.00;;;;;;;4.50;95.27;97915.75;4944988;28;20485;-44
2022/11/16 06:54:18;;;;;;;2.67;1.60;;;;;;;4.44;95.18;97911.78;4939401;28;20062;-44
2022/11/16 06:56:44;;;;;;;2.05;1.05;;;;;;;4.40;94.99;97919.94;4937639;28;20071;-44
2022/11/16 06:59:11;;;;;;;2.40;1.50;;;;;;;4.39;94.96;97921.13;4938442;29;20048;-43
2022/11/16 07:01:38;;;;;;;4.30;1.60;;;;;;;4.37;95.14;97925.41;4933636;29;20163;-45
2022/11/16 07:04:05;;;;;;;2.30;1.40;;;;;;;4.39;95.30;97921.13;4947982;28;20098;-43
2022/11/16 07:06:31;;;;;;;1.35;1.17;;;;;;;4.40;95.05;97921.88;4956821;28;20054;-46
2022/11/16 07:08:59;;;;;;;3.42;1.83;;;;;;;4.38;95.07;97926.94;4934369;29;20379;-44
2022/11/16 07:11:26;;;;;;;1.75;1.65;;;;;;;4.37;95.29;97925.41;4946146;28;20135;-47
2022/11/16 07:13:53;;;;;;;2.10;1.67;;;;;;;4.38;95.30;97927.75;4947871;29;20059;-48
2022/11/16 07:16:20;;;;;;;6.25;2.65;;;;;;;4.37;95.10;97919.91;4934465;29;20047;-42
2022/11/16 07:18:47;;;;;;;4.82;3.00;;;;;;;4.37;95.08;97915.19;4938757;28;20047;-44
2022/11/16 07:21:15;;;;;;;4.47;2.83;;;;;;;4.37;95.48;97914.44;4957333;28;20134;-44
2022/11/16 07:23:43;;;;;;;4.70;2.78;;;;;;;4.35;95.06;97916.75;4938884;29;20109;-47
2022/11/16 07:26:10;;;;;;;7.70;4.10;;;;;;;4.32;95.18;97924.53;4940363;28;20044;-47
2022/11/16 07:28:37;;;;;;;3.55;1.73;;;;;;;4.31;95.46;97920.22;4933561;29;20054;-44
2022/11/16 07:31:13;;;;;;;2.80;1.90;;;;;;;4.29;95.27;97929.97;4932096;29;20580;-44
2022/11/16 07:33:40;;;;;;;3.88;2.15;;;;;;;4.28;95.51;97923.72;4937864;29;20062;-44
2022/11/16 07:36:12;;;;;;;3.45;2.10;;;;;;;4.28;95.29;97928.41;4936374;29;20050;-46
2022/11/16 07:38:39;;;;;;;3.13;1.95;;;;;;;4.23;95.29;97932.28;4930974;29;20052;-49
2022/11/16 07:41:10;;;;;;;3.28;2.13;;;;;;;4.25;95.71;97935.41;4932087;29;20044;-45
2022/11/16 07:43:36;;;;;;;4.93;1.98;;;;;;;4.25;95.37;97931.88;4932880;29;20445;-49
2022/11/16 07:46:05;;;;;;;4.63;3.35;;;;;;;4.24;95.28;97933.84;4933189;29;20438;-45
2022/11/16 07:48:52;;;;;;;5.20;2.25;;;;;;;4.21;95.62;97934.56;4933257;29;20044;-45
2022/11/16 07:51:19;;;;;;;5.13;2.00;;;;;;;4.22;95.68;97935.38;4933377;29;20142;-52
2022/11/16 07:53:45;;;;;;;6.55;2.08;;;;;;;4.24;95.50;97938.50;4931051;29;20501;-51
2022/11/16 07:56:12;;;;;;;5.85;2.88;;;;;;;4.21;95.58;97940.03;4932819;29;20043;-45
2022/11/16 07:58:39;;;;;;;5.35;2.20;;;;;;;4.23;95.67;97937.75;4932636;29;20055;-46
2022/11/16 08:01:14;;;;;;;3.95;2.03;;;;;;;4.20;95.29;97927.53;4932883;29;20051;-47
2022/11/16 08:03:42;;;;;;;3.67;2.20;;;;;;;4.22;95.48;97947.13;4932607;29;20546;-44
2022/11/16 08:06:30;;;;;;;6.68;2.63;;;;;;;4.23;95.42;97942.44;4932958;29;20150;-43
2022/11/16 08:08:57;;;;;;;3.58;2.42;;;;;;;4.21;95.39;97940.03;4930548;29;20506;-44
2022/11/16 08:11:25;;;;;;;4.45;2.63;;;;;;;4.21;95.33;97937.31;4935094;29;20451;-48
2022/11/16 08:13:52;;;;;;;4.53;3.70;;;;;;;4.22;95.50;97938.91;4933716;29;20051;-46
2022/11/16 08:16:21;;;;;;;4.93;2.90;;;;;;;4.20;95.57;97926.75;4937336;29;20142;-46
2022/11/16 08:18:48;;;;;;;7.90;3.67;;;;;;;4.21;95.59;97934.56;4934099;28;20040;-44
2022/11/16 08:21:16;;;;;;;7.50;3.17;;;;;;;4.22;95.85;97922.47;4933049;29;20051;-44
2022/11/16 08:23:45;;;;;;;6.10;3.30;;;;;;;4.22;95.30;97927.16;4934859;28;20059;-44
2022/11/16 08:26:15;;;;;;;4.10;3.05;;;;;;;4.24;95.48;97933.84;4931639;29;20058;-53
2022/11/16 08:28:44;;;;;;;4.88;3.85;;;;;;;4.27;95.51;97938.56;4943302;28;20043;-51
2022/11/16 08:31:13;;;;;;;5.10;3.40;;;;;;;4.28;95.52;97931.94;4932293;29;20059;-45
2022/11/16 08:33:40;;;;;;;7.32;4.10;;;;;;;4.28;95.35;97928.41;4929404;29;20091;-44
2022/11/16 08:36:11;;;;;;;9.75;4.55;;;;;;;4.28;95.29;97925.66;4923404;29;20051;-44
2022/11/16 08:38:40;;;;;;;8.30;4.22;;;;;;;4.29;95.49;97924.50;4931234;29;20051;-42
2022/11/16 08:41:06;;;;;;;9.20;4.43;;;;;;;4.34;95.65;97931.59;4936395;29;20142;-44
2022/11/16 08:43:34;;;;;;;7.28;4.05;;;;;;;4.36;95.80;97926.53;4931202;28;20142;-45
2022/11/16 08:46:02;;;;;;;10.88;4.90;;;;;;;4.36;95.71;97932.81;4935733;29;20047;-44
2022/11/16 08:48:29;;;;;;;9.00;3.85;;;;;;;4.39;95.78;97934.03;4929686;29;20078;-52
2022/11/16 08:51:13;;;;;;;10.35;4.80;;;;;;;4.40;95.62;97930.91;4931511;29;20087;-45
2022/11/16 08:53:46;;;;;;;10.13;4.57;;;;;;;4.44;95.84;97926.25;4932059;29;20071;-45
2022/11/16 08:56:15;;;;;;;7.25;3.67;;;;;;;4.46;96.10;97918.47;4932059;29;20067;-45
2022/11/16 08:58:43;;;;;;;6.35;3.80;;;;;;;4.48;95.98;97926.28;4932550;29;20155;-44
2022/11/16 09:01:17;;;;;;;8.35;4.57;;;;;;;4.53;96.16;97934.16;4932022;29;20409;-45
2022/11/16 09:03:45;;;;;;;8.57;5.22;;;;;;;4.60;95.95;97931.53;4929953;29;20064;-44
2022/11/16 09:06:13;;;;;;;10.75;5.15;;;;;;;4.64;95.84;97935.09;4931133;29;20044;-46
2022/11/16 09:08:41;;;;;;;8.07;4.13;;;;;;;4.66;96.06;97935.53;4931884;29;20054;-44
2022/11/16 09:11:12;;;;;;;21.15;7.53;;;;;;;4.71;96.13;97940.66;4931770;29;20814;-44
2022/11/16 09:13:39;;;;;;;6.07;3.60;;;;;;;4.79;95.99;97947.81;4928925;29;20048;-44
2022/11/16 09:16:06;;;;;;;7.78;3.75;;;;;;;4.84;96.12;97947.47;4932347;29;20067;-52
2022/11/16 09:18:34;;;;;;;11.05;5.28;;;;;;;4.90;95.94;97945.94;4931808;29;20398;-45
2022/11/16 09:21:02;;;;;;;10.18;4.25;;;;;;;4.93;96.28;97943.25;4931599;29;20046;-45
2022/11/16 09:23:29;;;;;;;6.70;3.63;;;;;;;4.99;95.87;97946.44;4931592;29;20052;-45
2022/11/16 09:26:00;;;;;;;5.90;3.30;;;;;;;5.03;96.03;97944.50;4930502;29;20043;-48
2022/11/16 09:28:27;;;;;;;5.95;3.58;;;;;;;5.12;95.97;97942.25;4931548;29;20557;-44
2022/11/16 09:31:02;;;;;;;6.63;3.42;;;;;;;5.18;96.15;97953.69;4931434;29;20052;-47
2022/11/16 09:33:30;;;;;;;7.80;4.35;;;;;;;5.20;95.65;97946.66;4923219;29;20326;-50
2022/11/16 09:36:05;;;;;;;6.80;2.83;;;;;;;5.25;95.92;97945.50;4945777;28;20145;-48
2022/11/16 09:38:40;;;;;;;7.70;4.20;;;;;;;5.27;95.76;97949.44;4930027;29;20071;-49
2022/11/16 09:41:43;;;;;;;9.70;4.72;;;;;;;5.34;96.18;97946.00;4930378;29;20513;-45
2022/11/16 09:44:23;;;;;;;4.93;2.88;;;;;;;5.40;96.14;97942.50;4938246;29;20142;-47
2022/11/16 09:46:55;;;;;;;6.55;3.40;;;;;;;5.50;96.24;97939.09;4931518;29;20047;-45
2022/11/16 09:49:49;;;;;;;9.88;3.50;;;;;;;5.58;96.12;97950.91;4931869;29;20094;-45
2022/11/16 09:52:25;;;;;;;7.35;2.63;;;;;;;5.64;95.80;97941.13;4927760;29;20514;-48
2022/11/16 09:54:53;;;;;;;5.38;2.72;;;;;;;5.70;95.71;97936.09;4931040;29;20052;-44
2022/11/16 09:57:27;;;;;;;4.68;2.47;;;;;;;5.76;95.65;97951.03;4938832;28;20473;-43
2022/11/16 10:00:00;;;;;;;8.43;2.85;;;;;;;5.79;95.63;97959.31;4931419;29;20048;-46
2022/11/16 10:02:38;;;;;;;13.85;4.85;;;;;;;5.83;95.51;97948.34;4931049;29;20577;-44
2022/11/16 10:05:31;;;;;;;4.38;2.60;;;;;;;5.87;95.73;97952.72;4932062;29;20047;-42
2022/11/16 10:08:03;;;;;;;;;;;;;;;5.91;95.60;97950.78;4935425;29;20135;-46
2022/11/16 10:10:37;;;;;;;6.03;4.53;;;;;;;5.92;95.62;97943.34;4934996;29;20017;-42
2022/11/16 10:13:10;;;;;;;7.78;3.65;;;;;;;5.96;95.40;97950.41;4935046;29;20048;-40
2022/11/16 10:16:07;;;;;;;11.68;4.15;;;;;;;6.01;95.24;97941.06;4935128;29;20044;-43
2022/11/16 10:18:41;;;;;;;7.88;3.95;;;;;;;6.05;95.45;97939.91;4935235;29;20122;-46
2022/11/16 10:21:17;;;;;;;10.25;3.60;;;;;;;6.12;95.44;97939.13;4933910;29;20059;-43
2022/11/16 10:24:13;;;;;;;6.93;2.95;;;;;;;6.17;95.41;97949.75;4935720;29;20043;-46
2022/11/16 10:26:54;;;;;;;6.00;2.67;;;;;;;6.21;95.36;97947.84;4934046;29;20050;-43
2022/11/16 10:29:48;;;;;;;11.05;3.65;;;;;;;6.27;95.51;97948.25;4934845;29;20056;-41
2022/11/16 10:32:32;;;;;;;9.60;3.10;;;;;;;6.32;95.15;97951.44;4934807;29;20047;-42
2022/11/16 10:35:11;;;;;;;4.93;2.83;;;;;;;6.37;95.37;97947.53;4934800;29;20125;-43
2022/11/16 10:37:45;;;;;;;5.70;2.42;;;;;;;6.41;95.24;97953.81;4934781;29;20134;-43
2022/11/16 10:40:22;;;;;;;6.13;2.45;;;;;;;6.46;95.41;97951.47;4935106;29;20048;-42
2022/11/16 10:43:10;;;;;;;6.65;1.52;;;;;;;6.52;95.09;97949.94;4923376;29;20040;-42
2022/11/16 10:46:12;;;;;;;7.47;1.80;;;;;;;6.60;95.15;97957.06;4934654;29;20462;-43
2022/11/16 10:48:53;;;;;;;4.20;1.02;;;;;;;6.72;95.24;97958.69;4934478;29;20102;-44
2022/11/16 10:51:19;;;;;;;1.60;0.77;;;;;;;6.80;94.91;97956.75;4934150;29;20461;-41
2022/11/16 10:53:46;;;;;;;2.55;1.30;;;;;;;6.83;94.62;97942.97;4933580;29;20047;-43
2022/11/16 10:56:39;;;;;;;8.20;1.42;;;;;;;6.86;94.64;97944.19;4934865;29;20044;-42
2022/11/16 10:59:07;;;;;;;5.43;1.10;;;;;;;6.88;94.61;97948.13;4934284;29;20474;-46
2022/11/16 11:01:48;;;;;;;6.95;1.27;;;;;;;6.93;94.51;97938.72;4945890;29;20048;-46
2022/11/16 11:04:22;;;;;;;10.85;1.23;;;;;;;6.96;94.40;97940.69;4948597;29;20060;-44
2022/11/16 11:06:57;;;;;;;14.70;2.38;;;;;;;7.02;94.42;97944.59;4934184;29;20528;-42
2022/11/16 11:09:29;;;;;;;5.50;1.10;;;;;;;7.12;94.42;97941.13;4933975;29;20054;-44
2022/11/16 11:15:24;;;;;;;6.90;1.30;;;;;;;7.15;93.72;97927.34;4901628;29;20058;-42
2022/11/16 11:18:18;;;;;;;7.28;1.52;;;;;;;7.15;93.77;97910.84;4932549;29;20138;-45
2022/11/16 11:20:51;;;;;;;5.22;1.02;;;;;;;7.18;93.65;97892.75;4933822;29;20142;-43
2022/11/16 11:23:24;;;;;;;9.20;1.05;;;;;;;7.20;93.60;97895.94;4931774;29;20138;-42
2022/11/16 11:25:57;;;;;;;;;;;;;;;7.24;93.43;97899.44;4934080;29;20063;-45
2022/11/16 11:28:30;;;;;;;3.72;1.10;;;;;;;7.26;93.25;97906.13;4936298;29;19922;-41
2022/11/16 11:31:10;;;;;;;6.18;1.58;;;;;;;7.30;92.96;97895.94;4934126;29;20054;-42
2022/11/16 11:33:42;;;;;;;3.58;0.70;;;;;;;7.32;92.75;97887.28;4932943;29;20087;-46
2022/11/16 11:36:19;;;;;;;3.60;1.48;;;;;;;7.33;92.59;97888.84;4933657;29;20051;-42
2022/11/16 11:38:58;;;;;;;6.30;1.50;;;;;;;7.37;92.41;97884.13;4933890;29;20056;-45
2022/11/16 11:41:32;;;;;;;6.28;1.75;;;;;;;7.40;92.31;97888.84;4934009;29;20050;-44
2022/11/16 11:44:05;;;;;;;5.60;1.80;;;;;;;7.46;92.11;97876.28;4931739;29;20044;-43
2022/11/16 11:46:36;;;;;;;3.30;0.90;;;;;;;7.51;91.72;97875.88;4931048;29;20067;-42
2022/11/16 11:49:31;;;;;;;6.50;1.30;;;;;;;7.53;91.32;97876.25;4944315;28;20134;-46
2022/11/16 11:52:10;;;;;;;4.47;1.10;;;;;;;7.57;91.21;97863.25;4918278;29;20039;-42
2022/11/16 11:54:42;;;;;;;5.90;0.90;;;;;;;7.62;90.91;97871.16;4927612;29;20066;-42
2022/11/16 11:57:21;;;;;;;3.88;0.90;;;;;;;7.69;90.59;97860.13;4933279;29;20048;-41
2022/11/16 11:59:53;;;;;;;4.57;1.23;;;;;;;7.73;90.50;97860.13;4936044;29;20147;-42
2022/11/16 12:02:41;;;;;;;5.17;1.50;;;;;;;7.74;90.31;97864.41;4934601;29;20063;-45
2022/11/16 12:05:14;;;;;;;5.57;0.80;;;;;;;7.78;90.17;97865.22;4932273;29;20059;-42
2022/11/16 12:07:53;;;;;;;7.70;1.05;;;;;;;7.82;90.00;97853.00;4933244;29;20043;-43
2022/11/16 12:10:38;;;;;;;7.05;0.90;;;;;;;7.83;89.72;97840.81;4933130;29;20075;-42
2022/11/16 12:13:05;;;;;;;5.65;1.10;;;;;;;7.83;89.70;97846.31;4932844;29;20600;-45
2022/11/16 12:15:58;;;;;;;13.05;2.10;;;;;;;7.86;89.71;97845.50;4933863;29;20031;-48
2022/11/16 12:19:02;;;;;;;4.65;1.17;;;;;;;7.89;89.65;97841.16;4922754;29;20123;-44
2022/11/16 12:21:35;;;;;;;4.45;1.70;;;;;;;7.91;89.70;97839.63;4933143;29;20401;-42
2022/11/16 12:24:01;;;;;;;4.88;1.40;;;;;;;7.93;89.73;97844.72;4933027;29;20048;-43
2022/11/16 12:26:44;;;;;;;5.85;1.10;;;;;;;7.97;89.69;97845.47;4932693;28;20061;-45
2022/11/16 12:29:20;;;;;;;11.27;1.23;;;;;;;7.99;89.61;97838.38;4931772;29;20064;-44
2022/11/16 12:32:41;;;;;;;9.68;2.15;;;;;;;8.03;89.55;97843.09;4938762;29;20406;-42
2022/11/16 12:35:10;;;;;;;6.55;1.80;;;;;;;8.10;89.46;97827.31;4908697;29;20143;-44
2022/11/16 12:37:49;;;;;;;4.28;0.80;;;;;;;8.13;89.20;97842.31;4910739;29;20082;-47
2022/11/16 12:40:22;;;;;;;3.85;1.15;;;;;;;8.13;89.24;97832.03;4930960;28;20063;-44
2022/11/16 12:43:15;;;;;;;1.27;0.82;;;;;;;8.15;89.20;97839.91;4937219;29;20053;-43
2022/11/16 12:46:01;;;;;;;3.38;1.60;;;;;;;8.19;89.29;97835.16;4938619;29;20044;-43
2022/11/16 12:48:51;;;;;;;2.70;0.80;;;;;;;8.20;89.32;97839.50;4932501;29;20126;-43
2022/11/16 12:51:48;;;;;;;4.85;0.73;;;;;;;8.23;89.53;97838.72;4930138;29;20051;-46
2022/11/16 12:54:41;;;;;;;7.55;1.15;;;;;;;8.29;89.60;97845.38;4925647;29;20597;-44